createdAt,value
2022-12-23T00:01:05.895Z,101236.69
2022-12-23T00:03:33.695Z,101189.59
2022-12-23T00:06:01.090Z,101227.69
2022-12-23T00:08:30.477Z,101173.88
2022-12-23T00:10:57.711Z,101240.63
2022-12-23T00:13:43.034Z,101221.38
2022-12-23T00:16:14.545Z,101248.56
2022-12-23T00:18:42.102Z,101227.06
2022-12-23T00:21:12.797Z,101173.13
2022-12-23T00:23:47.050Z,101243.50
2022-12-23T00:26:16.745Z,101243.47
2022-12-23T00:28:44.425Z,101236.41
2022-12-23T00:31:14.206Z,101239.75
2022-12-23T00:33:44.065Z,101261.88
2022-12-23T00:36:27.611Z,101172.56
2022-12-23T00:39:19.586Z,101252.97
2022-12-23T00:42:04.910Z,101240.38
2022-12-23T00:44:31.847Z,101229.06
2022-12-23T00:47:01.427Z,101223.97
2022-12-23T00:49:44.323Z,101222.19
2022-12-23T00:52:13.762Z,101217.75
2022-12-23T00:54:40.685Z,101181.22
2022-12-23T00:57:11.654Z,101223.53
2022-12-23T00:59:41.516Z,101241.03
2022-12-23T01:02:30.340Z,101244.81
2022-12-23T01:05:19.735Z,101262.28
2022-12-23T01:07:46.344Z,101261.94
2022-12-23T01:10:13.076Z,101273.66
2022-12-23T01:12:42.838Z,101297.78
2022-12-23T01:15:10.103Z,101294.22
2022-12-23T01:17:43.014Z,101236.19
2022-12-23T01:20:10.278Z,101290.22
2022-12-23T01:22:36.962Z,101237.50
2022-12-23T01:25:04.446Z,101268.84
2022-12-23T01:27:31.132Z,101230.53
2022-12-23T01:29:57.980Z,101295.50
2022-12-23T01:32:24.628Z,101294.16
2022-12-23T01:34:51.294Z,101249.81
2022-12-23T01:37:18.020Z,101269.72
2022-12-23T01:39:44.727Z,101269.28
2022-12-23T01:42:34.834Z,101269.81
2022-12-23T01:45:21.887Z,101277.84
2022-12-23T01:47:48.465Z,101239.59
2022-12-23T01:51:03.472Z,101273.59
2022-12-23T01:53:47.570Z,101254.25
2022-12-23T01:56:37.018Z,101195.03
2022-12-23T01:59:35.240Z,101277.50
2022-12-23T02:02:23.811Z,101296.78
2022-12-23T02:04:51.463Z,101272.91
2022-12-23T02:07:37.354Z,101262.09
2022-12-23T02:10:05.635Z,101261.78
2022-12-23T02:12:35.688Z,101197.31
2022-12-23T02:15:28.666Z,101280.31
2022-12-23T02:18:13.678Z,101249.28
2022-12-23T02:20:53.817Z,101279.19
2022-12-23T02:23:44.692Z,101261.66
2022-12-23T02:26:59.771Z,101289.06
2022-12-23T02:29:39.928Z,101278.50
2022-12-23T02:32:15.690Z,101262.28
2022-12-23T02:35:03.717Z,101182.94
2022-12-23T02:37:39.605Z,101253.19
2022-12-23T02:40:28.253Z,101255.94
2022-12-23T02:43:23.778Z,101272.56
2022-12-23T02:46:22.914Z,101259.13
2022-12-23T02:48:53.330Z,101230.03
2022-12-23T02:51:22.849Z,101231.31
2022-12-23T02:53:53.113Z,101176.81
2022-12-23T02:56:22.781Z,101186.88
2022-12-23T02:59:12.862Z,101208.97
2022-12-23T03:01:42.242Z,101232.59
2022-12-23T03:04:12.289Z,101190.16
2022-12-23T03:06:44.750Z,100997.34
2022-12-23T03:09:39.062Z,101208.03
2022-12-23T03:12:16.162Z,101181.50
2022-12-23T03:15:37.953Z,101225.06
2022-12-23T03:18:46.722Z,101080.28
2022-12-23T03:21:22.305Z,101202.94
2022-12-23T03:24:05.452Z,101206.63
2022-12-23T03:26:52.061Z,101205.91
2022-12-23T03:29:35.563Z,101121.19
2022-12-23T03:32:05.401Z,101182.31
2022-12-23T03:34:38.477Z,101199.25
2022-12-23T03:37:09.704Z,101145.81
2022-12-23T03:39:46.898Z,101220.63
2022-12-23T03:42:27.715Z,101183.91
2022-12-23T03:45:36.500Z,101094.75
2022-12-23T03:47:57.379Z,101178.28
2022-12-23T03:50:25.472Z,101210.44
2022-12-23T03:53:05.701Z,101214.06
2022-12-23T03:56:09.952Z,101215.56
2022-12-23T03:58:46.516Z,101215.34
2022-12-23T04:01:36.615Z,101207.91
2022-12-23T04:04:16.082Z,101217.88
2022-12-23T04:06:50.834Z,101200.84
2022-12-23T04:09:22.711Z,101235.00
2022-12-23T04:11:49.748Z,101241.69
2022-12-23T04:14:21.860Z,101211.94
2022-12-23T04:16:49.869Z,101213.84
2022-12-23T04:19:16.628Z,101214.69
2022-12-23T04:21:45.910Z,101212.81
2022-12-23T04:24:12.700Z,101143.59
2022-12-23T04:26:39.429Z,101189.31
2022-12-23T04:29:08.755Z,101210.22
2022-12-23T04:31:35.475Z,101223.38
2022-12-23T04:34:02.236Z,101201.03
2022-12-23T04:36:28.908Z,101212.69
2022-12-23T04:38:59.006Z,101180.63
2022-12-23T04:41:25.840Z,101212.50
2022-12-23T04:43:53.344Z,101219.44
2022-12-23T04:46:20.586Z,101218.94
2022-12-23T04:48:47.348Z,101201.88
2022-12-23T04:51:14.147Z,101229.28
2022-12-23T04:53:40.780Z,101209.50
2022-12-23T04:56:07.508Z,101208.34
2022-12-23T04:58:34.239Z,101211.59
2022-12-23T05:01:07.152Z,101125.63
2022-12-23T05:03:33.948Z,101174.16
2022-12-23T05:06:00.660Z,101189.94
2022-12-23T05:08:27.751Z,101217.97
2022-12-23T05:10:54.493Z,101228.84
2022-12-23T05:13:24.738Z,101237.75
2022-12-23T05:15:55.384Z,101237.00
2022-12-23T05:18:23.100Z,101173.00
2022-12-23T05:20:51.121Z,101234.16
2022-12-23T05:23:17.926Z,101235.66
2022-12-23T05:25:51.367Z,101207.69
2022-12-23T05:28:18.044Z,101073.19
2022-12-23T05:30:44.704Z,101228.63
2022-12-23T05:33:11.357Z,101203.25
2022-12-23T05:35:38.062Z,101214.53
2022-12-23T05:38:04.706Z,101196.78
2022-12-23T05:40:33.752Z,101232.00
2022-12-23T05:43:00.805Z,101242.81
2022-12-23T05:45:27.600Z,101237.09
2022-12-23T05:47:54.199Z,101236.25
2022-12-23T05:50:20.772Z,101221.25
2022-12-23T05:52:50.505Z,101255.75
2022-12-23T05:55:17.214Z,101247.81
2022-12-23T05:57:43.841Z,101198.59
2022-12-23T06:00:13.885Z,101233.63
2022-12-23T06:02:44.391Z,101239.03
2022-12-23T06:05:14.843Z,101247.75
2022-12-23T06:07:41.806Z,101252.72
2022-12-23T06:10:14.586Z,101241.66
2022-12-23T06:12:41.269Z,101267.25
2022-12-23T06:15:08.816Z,101249.38
2022-12-23T06:17:35.430Z,101259.13
2022-12-23T06:20:02.141Z,101115.16
2022-12-23T06:22:29.075Z,101209.00
2022-12-23T06:24:55.952Z,101273.41
2022-12-23T06:27:22.771Z,101219.69
2022-12-23T06:29:49.420Z,101272.25
2022-12-23T06:32:16.056Z,101241.38
2022-12-23T06:34:42.657Z,101286.22
2022-12-23T06:37:09.299Z,101286.03
2022-12-23T06:39:36.014Z,101250.22
2022-12-23T06:42:02.698Z,101251.09
2022-12-23T06:44:31.317Z,101276.69
2022-12-23T06:47:01.099Z,101235.22
2022-12-23T06:49:30.621Z,101277.47
2022-12-23T06:51:57.156Z,101273.66
2022-12-23T06:54:26.002Z,101285.94
2022-12-23T06:56:52.733Z,101259.16
2022-12-23T06:59:20.949Z,101245.91
2022-12-23T07:01:59.536Z,101280.81
2022-12-23T07:04:26.527Z,101225.69
2022-12-23T07:06:53.259Z,101219.13
2022-12-23T07:09:20.023Z,101251.63
2022-12-23T07:11:49.801Z,101203.19
2022-12-23T07:14:19.520Z,101277.66
2022-12-23T07:16:46.513Z,101262.75
2022-12-23T07:19:16.336Z,101178.66
2022-12-23T07:21:42.979Z,101281.50
2022-12-23T07:24:09.881Z,101241.38
2022-12-23T07:26:36.560Z,101276.38
2022-12-23T07:29:12.315Z,101234.88
2022-12-23T07:31:44.729Z,101285.72
2022-12-23T07:34:11.612Z,101287.53
2022-12-23T07:36:38.346Z,101265.38
2022-12-23T07:39:07.426Z,101273.38
2022-12-23T07:41:34.072Z,101257.81
2022-12-23T07:44:00.854Z,101249.69
2022-12-23T07:46:27.654Z,101216.50
2022-12-23T07:48:57.584Z,101252.75
2022-12-23T07:51:29.092Z,101290.50
2022-12-23T07:53:55.915Z,101302.63
2022-12-23T07:56:22.823Z,101273.78
2022-12-23T07:58:50.508Z,101282.53
2022-12-23T08:01:18.239Z,101286.66
2022-12-23T08:03:47.354Z,101297.16
2022-12-23T08:06:18.560Z,101289.91
2022-12-23T08:08:46.820Z,101315.28
2022-12-23T08:11:15.251Z,101315.69
2022-12-23T08:13:43.931Z,101286.09
2022-12-23T08:16:14.448Z,101266.56
2022-12-23T08:18:56.738Z,101316.38
2022-12-23T08:21:26.072Z,101335.25
2022-12-23T08:23:54.201Z,101318.28
2022-12-23T08:26:24.046Z,101319.13
2022-12-23T08:28:53.758Z,101314.97
2022-12-23T08:31:28.631Z,101297.72
2022-12-23T08:34:00.566Z,101301.13
2022-12-23T08:36:32.951Z,101309.66
2022-12-23T08:39:02.794Z,101300.28
2022-12-23T08:41:32.824Z,101305.16
2022-12-23T08:43:59.903Z,101221.78
2022-12-23T08:46:29.702Z,101321.81
2022-12-23T08:48:58.631Z,101315.03
2022-12-23T08:51:26.289Z,101304.59
2022-12-23T08:54:00.445Z,101317.09
2022-12-23T08:56:32.067Z,101293.41
2022-12-23T08:59:02.902Z,101323.97
2022-12-23T09:01:32.908Z,101259.78
2022-12-23T09:04:06.053Z,101313.44
2022-12-23T09:06:42.913Z,101319.81
2022-12-23T09:09:11.986Z,101146.44
2022-12-23T09:14:23.934Z,101303.38
2022-12-23T09:16:52.619Z,101285.41
2022-12-23T09:19:19.452Z,101310.09
2022-12-23T09:21:46.197Z,101306.66
2022-12-23T09:24:14.187Z,101318.06
2022-12-23T09:26:40.925Z,101291.75
2022-12-23T09:29:07.660Z,101287.88
2022-12-23T09:31:37.745Z,101317.34
2022-12-23T09:34:11.117Z,101264.44
2022-12-23T09:36:37.821Z,101307.19
2022-12-23T09:39:06.179Z,101316.94
2022-12-23T09:41:46.361Z,101307.28
2022-12-23T09:44:21.252Z,101234.53
2022-12-23T09:46:55.456Z,101302.50
2022-12-23T09:49:24.012Z,101267.56
2022-12-23T09:51:57.207Z,101300.03
2022-12-23T09:54:28.572Z,101307.50
2022-12-23T09:56:58.153Z,101231.00
2022-12-23T09:59:43.054Z,101303.94
2022-12-23T10:02:40.322Z,101259.97
2022-12-23T10:05:20.294Z,101308.47
2022-12-23T10:07:53.039Z,101278.28
2022-12-23T10:11:00.696Z,101295.22
2022-12-23T10:13:41.726Z,101293.59
2022-12-23T10:16:26.131Z,101291.28
2022-12-23T10:19:00.000Z,101305.50
2022-12-23T10:21:30.152Z,101310.81
2022-12-23T10:23:56.826Z,101298.59
2022-12-23T10:26:24.957Z,101302.94
2022-12-23T10:29:21.085Z,101211.09
2022-12-23T10:32:00.577Z,101305.59
2022-12-23T10:34:50.968Z,101298.59
2022-12-23T10:37:37.033Z,101275.75
2022-12-23T10:40:41.136Z,101286.13
2022-12-23T10:43:19.097Z,101284.63
2022-12-23T10:46:26.216Z,101235.59
2022-12-23T10:49:38.463Z,101298.63
2022-12-23T10:52:27.423Z,101272.03
2022-12-23T10:54:54.135Z,101281.00
2022-12-23T10:57:21.312Z,101277.59
2022-12-23T10:59:48.018Z,101277.16
2022-12-23T11:02:47.373Z,101284.13
2022-12-23T11:05:24.526Z,101268.16
2022-12-23T11:07:51.461Z,101298.31
2022-12-23T11:10:20.994Z,101215.31
2022-12-23T11:12:53.237Z,101280.81
2022-12-23T11:15:29.047Z,101265.06
2022-12-23T11:18:06.320Z,101293.72
2022-12-23T11:20:35.078Z,101299.66
2022-12-23T11:23:06.632Z,101263.25
2022-12-23T11:25:41.040Z,101240.94
2022-12-23T11:28:12.087Z,101268.25
2022-12-23T11:31:00.439Z,101295.66
2022-12-23T11:33:32.772Z,101203.50
2022-12-23T11:36:21.729Z,101275.28
2022-12-23T11:39:14.606Z,101304.28
2022-12-23T11:41:50.313Z,101264.94
2022-12-23T11:44:38.333Z,101212.72
2022-12-23T11:47:34.293Z,101280.63
2022-12-23T11:50:09.088Z,101248.75
2022-12-23T11:52:36.153Z,101269.69
2022-12-23T11:55:06.220Z,101283.59
2022-12-23T11:57:49.958Z,101235.53
2022-12-23T12:00:55.317Z,101224.53
2022-12-23T12:03:40.353Z,101210.59
2022-12-23T12:06:07.999Z,101231.97
2022-12-23T12:08:40.519Z,101232.66
2022-12-23T12:11:18.272Z,101200.31
2022-12-23T12:13:51.368Z,101171.69
2022-12-23T12:16:42.123Z,101152.25
2022-12-23T12:19:38.985Z,101176.75
2022-12-23T12:22:17.858Z,101078.91
2022-12-23T12:24:50.488Z,101119.13
2022-12-23T12:27:27.597Z,101193.31
2022-12-23T12:30:02.074Z,101182.75
2022-12-23T12:32:57.761Z,101222.63
2022-12-23T12:35:30.359Z,101222.94
2022-12-23T12:38:21.308Z,101228.75
2022-12-23T12:40:55.235Z,101214.75
2022-12-23T12:43:37.511Z,101234.53
2022-12-23T12:46:23.129Z,101230.94
2022-12-23T12:49:20.469Z,101165.22
2022-12-23T12:52:01.642Z,101193.28
2022-12-23T12:54:44.248Z,101198.25
2022-12-23T12:57:15.931Z,101147.00
2022-12-23T12:59:49.010Z,101201.03
2022-12-23T13:03:02.545Z,101219.00
2022-12-23T13:05:53.382Z,101149.28
2022-12-23T13:08:46.615Z,101191.25
2022-12-23T13:11:28.692Z,101162.44
2022-12-23T13:14:23.748Z,101178.13
2022-12-23T13:17:00.165Z,101180.25
2022-12-23T13:19:40.367Z,101175.03
2022-12-23T13:22:31.296Z,101177.22
2022-12-23T13:25:10.401Z,101180.69
2022-12-23T13:27:57.784Z,101201.00
2022-12-23T13:30:37.173Z,101186.16
2022-12-23T13:33:13.123Z,101177.69
2022-12-23T13:36:13.267Z,101174.34
2022-12-23T13:38:57.831Z,101177.69
2022-12-23T13:41:24.508Z,101190.69
2022-12-23T13:44:00.580Z,101155.06
2022-12-23T13:46:30.218Z,101120.63
2022-12-23T13:49:05.027Z,101186.84
2022-12-23T13:51:43.428Z,101188.38
2022-12-23T13:54:33.601Z,101170.81
2022-12-23T13:57:25.537Z,101108.03
2022-12-23T14:00:27.093Z,101190.59
2022-12-23T14:03:03.115Z,101196.13
2022-12-23T14:05:43.638Z,101210.53
2022-12-23T14:08:19.321Z,101223.69
2022-12-23T14:11:08.303Z,101191.72
2022-12-23T14:14:01.244Z,101146.63
2022-12-23T14:17:05.692Z,101197.91
2022-12-23T14:20:07.918Z,101156.53
2022-12-23T14:22:51.561Z,101138.44
2022-12-23T14:25:54.554Z,101082.66
2022-12-23T14:28:44.091Z,101215.28
2022-12-23T14:31:46.822Z,101225.28
2022-12-23T14:34:23.472Z,101220.75
2022-12-23T14:37:14.957Z,101223.41
2022-12-23T14:39:42.378Z,101209.16
2022-12-23T14:42:16.629Z,101199.31
2022-12-23T14:44:49.229Z,101194.00
2022-12-23T14:47:40.617Z,101209.66
2022-12-23T14:50:32.678Z,101207.00
2022-12-23T14:53:04.334Z,101181.19
2022-12-23T14:55:32.278Z,101125.97
2022-12-23T14:58:17.565Z,101215.09
2022-12-23T15:00:51.035Z,101210.03
2022-12-23T15:03:23.236Z,101202.19
2022-12-23T15:05:51.074Z,101227.75
2022-12-23T15:08:35.923Z,101217.66
2022-12-23T15:11:36.187Z,101187.22
2022-12-23T15:14:11.870Z,101198.41
2022-12-23T15:16:45.122Z,101196.03
2022-12-23T15:19:22.213Z,101197.44
2022-12-23T15:22:15.296Z,101203.84
2022-12-23T15:24:52.052Z,101168.66
2022-12-23T15:27:27.653Z,101200.72
2022-12-23T15:30:05.441Z,101193.03
2022-12-23T15:32:39.518Z,101181.22
2022-12-23T15:35:07.043Z,101205.47
2022-12-23T15:37:34.650Z,101197.03
2022-12-23T15:40:11.434Z,101204.63
2022-12-23T15:42:48.336Z,101185.44
2022-12-23T15:45:36.176Z,101135.50
2022-12-23T15:48:22.164Z,101200.09
2022-12-23T15:50:50.947Z,101197.53
2022-12-23T15:53:23.078Z,101182.00
2022-12-23T15:55:50.272Z,101157.63
2022-12-23T15:58:21.585Z,101152.47
2022-12-23T16:01:01.301Z,101184.25
2022-12-23T16:03:44.020Z,101141.75
2022-12-23T16:06:16.718Z,101189.31
2022-12-23T16:08:44.762Z,101192.94
2022-12-23T16:11:14.359Z,101175.81
2022-12-23T16:13:59.532Z,101171.31
2022-12-23T16:16:46.630Z,101169.16
2022-12-23T16:19:44.302Z,101182.09
2022-12-23T16:22:28.839Z,101007.06
2022-12-23T16:25:26.503Z,101113.84
2022-12-23T16:28:09.197Z,101151.88
2022-12-23T16:30:50.032Z,101087.84
2022-12-23T16:33:40.922Z,101168.34
2022-12-23T16:36:26.367Z,101167.88
2022-12-23T16:38:59.994Z,101159.19
2022-12-23T16:41:26.687Z,101136.28
2022-12-23T16:43:53.412Z,101146.41
2022-12-23T16:46:23.165Z,101143.25
2022-12-23T16:48:55.876Z,101145.56
2022-12-23T16:51:23.467Z,101094.25
2022-12-23T16:53:57.771Z,101122.97
2022-12-23T16:56:50.422Z,101142.25
2022-12-23T16:59:21.345Z,101138.06
2022-12-23T17:02:03.689Z,101162.56
2022-12-23T17:04:34.863Z,101183.47
2022-12-23T17:07:01.743Z,101155.25
2022-12-23T17:09:28.417Z,101164.44
2022-12-23T17:11:55.269Z,101166.25
2022-12-23T17:14:24.772Z,101173.66
2022-12-23T17:16:51.976Z,101196.66
2022-12-23T17:19:27.384Z,101180.50
2022-12-23T17:22:11.941Z,101178.34
2022-12-23T17:24:39.026Z,101160.84
2022-12-23T17:27:16.426Z,101202.47
2022-12-23T17:29:46.444Z,101215.75
2022-12-23T17:32:15.596Z,101148.81
2022-12-23T17:34:45.134Z,101151.00
2022-12-23T17:37:18.095Z,101196.94
2022-12-23T17:39:45.515Z,101189.41
2022-12-23T17:42:24.946Z,101144.44
2022-12-23T17:44:52.453Z,101197.13
2022-12-23T17:47:21.455Z,101193.28
2022-12-23T17:49:48.156Z,101202.81
2022-12-23T17:52:17.824Z,101191.84
2022-12-23T17:54:46.674Z,101140.84
2022-12-23T18:00:33.874Z,101209.13
2022-12-23T18:03:06.852Z,101213.47
2022-12-23T18:05:36.703Z,101213.59
2022-12-23T18:08:04.793Z,101190.16
2022-12-23T18:10:42.335Z,101189.56
2022-12-23T18:13:15.682Z,101185.22
2022-12-23T18:15:47.365Z,101202.34
2022-12-23T18:18:27.479Z,101159.91
2022-12-23T18:21:00.889Z,101212.03
2022-12-23T18:23:29.856Z,101187.44
2022-12-23T18:26:00.701Z,101217.69
2022-12-23T18:28:27.677Z,101210.81
2022-12-23T18:31:00.193Z,101213.13
2022-12-23T18:33:30.456Z,101224.22
2022-12-23T18:35:57.280Z,101242.56
2022-12-23T18:38:24.167Z,101229.28
2022-12-23T18:40:55.806Z,101264.41
2022-12-23T18:43:25.130Z,101225.19
2022-12-23T18:46:00.117Z,101202.38
2022-12-23T18:48:30.252Z,101210.94
2022-12-23T18:50:56.891Z,101173.06
2022-12-23T18:53:27.059Z,101204.16
2022-12-23T18:55:54.466Z,101211.78
2022-12-23T18:58:24.041Z,101210.00
2022-12-23T19:00:53.101Z,101206.59
2022-12-23T19:03:25.698Z,101152.03
2022-12-23T19:05:53.441Z,101207.06
2022-12-23T19:08:29.923Z,101209.00
2022-12-23T19:10:56.485Z,101190.19
2022-12-23T19:13:23.448Z,101172.03
2022-12-23T19:15:52.739Z,101167.66
2022-12-23T19:18:22.029Z,101180.97
2022-12-23T19:20:49.505Z,101151.94
2022-12-23T19:23:16.840Z,101224.94
2022-12-23T19:25:54.824Z,101223.59
2022-12-23T19:28:23.443Z,101199.59
2022-12-23T19:30:51.194Z,101215.88
2022-12-23T19:33:23.222Z,101150.63
2022-12-23T19:35:52.620Z,101191.63
2022-12-23T19:38:24.937Z,101204.91
2022-12-23T19:41:01.228Z,101177.53
2022-12-23T19:43:27.967Z,101122.84
2022-12-23T19:45:59.425Z,101166.66
2022-12-23T19:48:31.666Z,101167.50
2022-12-23T19:51:03.889Z,101131.69
2022-12-23T19:53:36.221Z,101151.19
2022-12-23T19:56:15.829Z,101153.13
2022-12-23T19:58:48.814Z,101167.97
2022-12-23T20:01:24.207Z,101152.19
2022-12-23T20:03:55.467Z,101114.66
2022-12-23T20:06:27.958Z,101157.50
2022-12-23T20:09:00.250Z,101151.31
2022-12-23T20:11:30.608Z,101179.22
2022-12-23T20:13:58.616Z,101193.91
2022-12-23T20:16:31.851Z,101212.63
2022-12-23T20:19:01.778Z,101201.53
2022-12-23T20:21:31.720Z,101194.66
2022-12-23T20:24:04.981Z,101154.19
2022-12-23T20:26:35.598Z,101210.22
2022-12-23T20:29:02.503Z,101169.78
2022-12-23T20:31:35.632Z,101196.94
2022-12-23T20:34:07.586Z,101209.03
2022-12-23T20:36:35.715Z,101242.09
2022-12-23T20:39:04.420Z,101255.47
2022-12-23T20:41:34.441Z,101250.53
2022-12-23T20:44:33.282Z,101267.03
2022-12-23T20:46:52.443Z,101273.91
2022-12-23T20:49:24.488Z,101273.09
2022-12-23T20:51:54.214Z,101254.41
2022-12-23T20:54:33.365Z,101194.25
2022-12-23T20:57:05.188Z,101253.06
2022-12-23T20:59:35.207Z,101254.63
2022-12-23T21:02:02.129Z,101223.25
2022-12-23T21:04:35.354Z,101247.13
2022-12-23T21:07:10.755Z,101256.66
2022-12-23T21:09:37.346Z,101212.47
2022-12-23T21:12:04.562Z,101243.06
2022-12-23T21:14:31.474Z,101236.75
2022-12-23T21:16:58.123Z,101262.56
2022-12-23T21:19:29.382Z,101190.38
2022-12-23T21:21:56.988Z,101241.50
2022-12-23T21:24:24.003Z,101293.16
2022-12-23T21:27:05.572Z,101229.88
2022-12-23T21:29:32.234Z,101269.88
2022-12-23T21:32:01.901Z,101247.16
2022-12-23T21:34:28.768Z,101286.75
2022-12-23T21:36:55.510Z,101222.59
2022-12-23T21:39:22.181Z,101286.44
2022-12-23T21:41:51.360Z,101265.56
2022-12-23T21:44:18.487Z,101292.00
2022-12-23T21:46:45.083Z,101269.66
2022-12-23T21:49:14.270Z,101357.72
2022-12-23T21:51:43.918Z,101367.50
2022-12-23T21:54:11.874Z,101370.25
2022-12-23T21:56:39.650Z,101317.09
2022-12-23T21:59:12.678Z,101321.75
2022-12-23T22:01:39.481Z,101285.72
2022-12-23T22:04:06.339Z,101306.91
2022-12-23T22:06:38.771Z,101297.38
2022-12-23T22:09:07.512Z,101335.50
2022-12-23T22:11:36.773Z,101347.78
2022-12-23T22:14:06.449Z,101315.22
2022-12-23T22:16:34.925Z,101333.00
2022-12-23T22:19:05.326Z,101343.16
2022-12-23T22:21:33.421Z,101335.53
2022-12-23T22:24:00.390Z,101332.78
2022-12-23T22:26:29.580Z,101328.66
2022-12-23T22:28:58.008Z,101294.91
2022-12-23T22:31:36.330Z,101280.94
2022-12-23T22:34:03.727Z,101285.06
2022-12-23T22:36:33.054Z,101235.78
2022-12-23T22:39:01.409Z,101240.94
2022-12-23T22:41:29.668Z,101234.00
2022-12-23T22:44:00.056Z,101227.25
2022-12-23T22:46:27.813Z,101139.97
2022-12-23T22:48:56.547Z,101207.72
2022-12-23T22:51:28.753Z,101180.31
2022-12-23T22:53:57.900Z,101195.53
2022-12-23T22:56:27.999Z,101240.78
2022-12-23T22:58:55.108Z,101261.63
2022-12-23T23:01:23.082Z,101229.47
2022-12-23T23:03:56.740Z,101241.97
2022-12-23T23:06:29.166Z,101238.81
2022-12-23T23:09:05.265Z,101234.34
2022-12-23T23:11:31.903Z,101236.25
2022-12-23T23:13:58.934Z,101262.19
2022-12-23T23:16:25.926Z,101232.88
2022-12-23T23:18:53.637Z,101221.72
2022-12-23T23:21:20.737Z,101204.13
2022-12-23T23:23:47.768Z,101206.03
2022-12-23T23:26:15.015Z,101184.44
2022-12-23T23:28:44.641Z,101166.22
2022-12-23T23:34:00.689Z,101168.66
2022-12-23T23:36:27.330Z,101170.25
2022-12-23T23:38:54.015Z,101115.56
2022-12-23T23:41:25.945Z,101167.72
2022-12-23T23:43:56.695Z,101134.66
2022-12-23T23:46:26.609Z,101067.63
2022-12-23T23:48:56.395Z,101102.13
2022-12-23T23:51:23.775Z,101104.41
2022-12-23T23:53:50.360Z,101118.06
2022-12-23T23:56:23.739Z,101106.34
2022-12-23T23:58:51.615Z,101122.03
